createdAt,value
2017-11-01T00:01:04.869Z,1.80
2017-11-01T00:03:32.720Z,1.90
2017-11-01T00:06:00.628Z,1.90
2017-11-01T00:08:28.230Z,1.80
2017-11-01T00:10:56.266Z,1.90
2017-11-01T00:13:24.722Z,1.90
2017-11-01T00:15:53.117Z,2.00
2017-11-01T00:18:21.492Z,1.90
2017-11-01T00:20:49.131Z,2.00
2017-11-01T00:23:16.703Z,2.00
2017-11-01T00:25:44.307Z,2.00
2017-11-01T00:28:11.904Z,2.10
2017-11-01T00:30:39.527Z,2.20
2017-11-01T00:33:07.909Z,2.20
2017-11-01T00:35:37.247Z,2.30
2017-11-01T00:38:04.845Z,2.30
2017-11-01T00:40:32.397Z,2.40
2017-11-01T00:43:00.027Z,2.40
2017-11-01T00:45:27.643Z,2.40
2017-11-01T00:47:55.307Z,2.50
2017-11-01T00:50:22.967Z,2.50
2017-11-01T00:52:50.548Z,2.50
2017-11-01T00:55:19.138Z,2.50
2017-11-01T00:57:46.740Z,2.50
2017-11-01T01:00:15.226Z,2.50
2017-11-01T01:02:43.595Z,2.60
2017-11-01T01:05:11.955Z,2.60
2017-11-01T01:07:40.309Z,2.50
2017-11-01T01:10:07.977Z,2.50
2017-11-01T01:12:35.619Z,2.50
2017-11-01T01:15:03.264Z,2.60
2017-11-01T01:17:31.612Z,2.60
2017-11-01T01:19:59.203Z,2.60
2017-11-01T01:22:27.537Z,2.60
2017-11-01T01:24:55.125Z,2.60
2017-11-01T01:27:22.683Z,2.70
2017-11-01T01:29:50.693Z,2.70
2017-11-01T01:32:18.320Z,2.80
2017-11-01T01:34:45.890Z,2.80
2017-11-01T01:37:13.491Z,2.80
2017-11-01T01:39:41.114Z,2.90
2017-11-01T01:42:08.725Z,2.90
2017-11-01T01:44:37.081Z,3.00
2017-11-01T01:47:04.682Z,3.00
2017-11-01T01:49:32.266Z,3.00
2017-11-01T01:51:59.901Z,3.10
2017-11-01T01:54:28.258Z,3.10
2017-11-01T01:56:55.838Z,3.10
2017-11-01T01:59:23.620Z,3.10
2017-11-01T02:01:51.966Z,3.20
2017-11-01T02:04:19.584Z,3.20
2017-11-01T02:06:47.217Z,3.30
2017-11-01T02:09:14.849Z,3.30
2017-11-01T02:11:44.838Z,3.40
2017-11-01T02:14:13.350Z,3.50
2017-11-01T02:16:40.927Z,3.50
2017-11-01T02:19:08.530Z,3.50
2017-11-01T02:21:36.182Z,3.60
2017-11-01T02:24:03.742Z,3.60
2017-11-01T02:26:31.357Z,3.60
2017-11-01T02:28:58.934Z,3.70
2017-11-01T02:31:26.519Z,3.70
2017-11-01T02:33:54.103Z,3.70
2017-11-01T02:36:21.736Z,3.70
2017-11-01T02:38:49.374Z,3.80
2017-11-01T02:41:17.716Z,3.80
2017-11-01T02:43:45.342Z,3.80
2017-11-01T02:46:12.995Z,3.90
2017-11-01T02:48:40.741Z,3.90
2017-11-01T02:51:09.110Z,4.00
2017-11-01T02:53:36.697Z,4.00
2017-11-01T02:56:05.052Z,4.10
2017-11-01T02:58:36.427Z,4.10
2017-11-01T03:01:04.758Z,4.10
2017-11-01T03:03:32.381Z,4.10
2017-11-01T03:06:00.725Z,4.20
2017-11-01T03:08:28.321Z,4.10
2017-11-01T03:10:56.681Z,4.20
2017-11-01T03:13:24.298Z,4.20
2017-11-01T03:15:52.703Z,4.30
2017-11-01T03:18:20.381Z,4.20
2017-11-01T03:20:48.065Z,4.40
2017-11-01T03:23:17.000Z,4.20
2017-11-01T03:25:44.626Z,4.40
2017-11-01T03:28:12.189Z,4.30
2017-11-01T03:30:39.763Z,4.30
2017-11-01T03:33:07.370Z,4.40
2017-11-01T03:35:34.962Z,4.40
2017-11-01T03:38:02.568Z,4.40
2017-11-01T03:40:30.923Z,4.40
2017-11-01T03:42:58.545Z,4.40
2017-11-01T03:45:26.267Z,4.40
2017-11-01T03:47:53.914Z,4.40
2017-11-01T03:50:21.524Z,4.40
2017-11-01T03:52:49.916Z,4.40
2017-11-01T03:55:18.294Z,4.40
2017-11-01T03:57:46.642Z,4.40
2017-11-01T04:00:14.633Z,4.30
2017-11-01T04:02:42.356Z,4.40
2017-11-01T04:05:09.942Z,4.40
2017-11-01T04:07:37.523Z,4.40
2017-11-01T04:10:05.111Z,4.40
2017-11-01T04:12:33.468Z,4.50
2017-11-01T04:15:01.074Z,4.40
2017-11-01T04:17:29.421Z,4.40
2017-11-01T04:19:57.193Z,4.40
2017-11-01T04:22:25.541Z,4.40
2017-11-01T04:24:53.151Z,4.40
2017-11-01T04:27:20.751Z,4.50
2017-11-01T04:29:48.405Z,4.50
2017-11-01T04:32:16.068Z,4.50
2017-11-01T04:34:43.684Z,4.60
2017-11-01T04:37:11.299Z,4.60
2017-11-01T04:39:39.638Z,4.60
2017-11-01T04:42:07.281Z,4.60
2017-11-01T04:44:34.967Z,4.60
2017-11-01T04:47:02.587Z,4.60
2017-11-01T04:49:30.187Z,4.70
2017-11-01T04:51:58.571Z,4.70
2017-11-01T04:54:27.145Z,4.70
2017-11-01T04:56:54.843Z,4.80
2017-11-01T04:59:22.460Z,4.80
2017-11-01T05:01:53.991Z,4.70
2017-11-01T05:04:22.387Z,4.80
2017-11-01T05:06:49.995Z,4.80
2017-11-01T05:09:17.630Z,4.90
2017-11-01T05:11:45.236Z,4.90
2017-11-01T05:14:18.770Z,4.90
2017-11-01T05:16:46.399Z,4.90
2017-11-01T05:19:14.030Z,5.00
2017-11-01T05:21:41.664Z,5.00
2017-11-01T05:24:10.078Z,4.90
2017-11-01T05:26:37.704Z,4.90
2017-11-01T05:29:05.317Z,4.90
2017-11-01T05:31:32.919Z,4.90
2017-11-01T05:34:01.622Z,4.90
2017-11-01T05:36:29.240Z,4.90
2017-11-01T05:38:56.857Z,5.00
2017-11-01T05:41:25.232Z,4.90
2017-11-01T05:43:52.850Z,4.90
2017-11-01T05:46:21.357Z,5.00
2017-11-01T05:48:48.959Z,5.00
2017-11-01T05:51:17.485Z,4.90
2017-11-01T05:53:45.052Z,4.90
2017-11-01T05:56:12.698Z,4.90
2017-11-01T05:58:41.076Z,4.90
2017-11-01T06:01:09.485Z,4.90
2017-11-01T06:03:37.098Z,4.90
2017-11-01T06:06:04.678Z,5.00
2017-11-01T06:08:33.107Z,4.90
2017-11-01T06:11:00.697Z,4.90
2017-11-01T06:13:28.258Z,4.90
2017-11-01T06:15:55.902Z,4.90
2017-11-01T06:18:23.542Z,4.90
2017-11-01T06:20:52.182Z,5.00
2017-11-01T06:23:19.760Z,5.00
2017-11-01T06:25:47.327Z,5.00
2017-11-01T06:28:14.925Z,5.10
2017-11-01T06:30:43.283Z,5.00
2017-11-01T06:33:10.890Z,5.00
2017-11-01T06:35:39.354Z,5.20
2017-11-01T06:38:07.701Z,5.20
2017-11-01T06:40:36.286Z,5.20
2017-11-01T06:43:03.898Z,5.30
2017-11-01T06:45:32.327Z,5.20
2017-11-01T06:48:03.829Z,5.20
2017-11-01T06:50:31.855Z,5.20
2017-11-01T06:53:01.259Z,5.30
2017-11-01T06:55:31.428Z,5.50
2017-11-01T06:57:59.073Z,5.50
2017-11-01T07:00:40.746Z,5.60
2017-11-01T07:03:12.174Z,5.60
2017-11-01T07:05:39.782Z,5.70
2017-11-01T07:08:07.438Z,5.70
2017-11-01T07:10:35.038Z,5.80
2017-11-01T07:13:03.406Z,6.00
2017-11-01T07:15:30.999Z,5.90
2017-11-01T07:18:00.309Z,6.20
2017-11-01T07:20:28.668Z,6.20
2017-11-01T07:22:56.317Z,6.20
2017-11-01T07:25:24.080Z,6.20
2017-11-01T07:27:51.673Z,6.20
2017-11-01T07:30:20.035Z,6.40
2017-11-01T07:32:47.609Z,6.40
2017-11-01T07:35:15.220Z,6.50
2017-11-01T07:37:42.813Z,6.50
2017-11-01T07:40:10.474Z,6.60
2017-11-01T07:42:38.037Z,6.80
2017-11-01T07:45:05.591Z,7.00
2017-11-01T07:47:33.152Z,7.20
2017-11-01T07:50:00.776Z,7.30
2017-11-01T07:52:28.402Z,7.50
2017-11-01T07:54:55.977Z,7.50
2017-11-01T07:57:23.596Z,7.80
2017-11-01T07:59:51.236Z,7.90
2017-11-01T08:02:18.892Z,8.10
2017-11-01T08:04:46.772Z,8.30
2017-11-01T08:07:14.582Z,8.40
2017-11-01T08:09:42.213Z,8.40
2017-11-01T08:12:10.264Z,8.50
2017-11-01T08:14:40.389Z,8.70
2017-11-01T08:17:07.957Z,8.80
2017-11-01T08:19:35.561Z,8.80
2017-11-01T08:22:03.317Z,8.80
2017-11-01T08:24:31.701Z,9.00
2017-11-01T08:26:59.291Z,9.00
2017-11-01T08:29:26.920Z,9.20
2017-11-01T08:31:54.467Z,9.30
2017-11-01T08:34:22.028Z,9.50
2017-11-01T08:36:49.607Z,9.60
2017-11-01T08:39:17.261Z,9.50
2017-11-01T08:41:45.619Z,9.60
2017-11-01T08:44:13.242Z,9.60
2017-11-01T08:46:40.809Z,9.70
2017-11-01T08:49:08.400Z,9.80
2017-11-01T08:51:36.039Z,9.90
2017-11-01T08:54:03.631Z,10.10
2017-11-01T08:56:31.310Z,10.10
2017-11-01T08:58:59.246Z,10.30
2017-11-01T09:01:26.861Z,10.50
2017-11-01T09:03:54.586Z,10.50
2017-11-01T09:06:22.983Z,10.60
2017-11-01T09:08:51.343Z,10.40
2017-11-01T09:11:19.086Z,10.40
2017-11-01T09:13:47.542Z,10.10
2017-11-01T09:16:15.644Z,10.00
2017-11-01T09:18:44.367Z,9.80
2017-11-01T09:21:12.437Z,9.90
2017-11-01T09:23:40.009Z,9.90
2017-11-01T09:26:08.335Z,10.20
2017-11-01T09:28:35.940Z,10.20
2017-11-01T09:31:03.563Z,10.30
2017-11-01T09:33:31.128Z,10.50
2017-11-01T09:35:58.678Z,10.60
2017-11-01T09:38:26.224Z,10.70
2017-11-01T09:40:54.550Z,11.00
2017-11-01T09:43:22.129Z,11.00
2017-11-01T09:45:49.693Z,11.20
2017-11-01T09:48:17.255Z,11.30
2017-11-01T09:50:44.889Z,11.50
2017-11-01T09:53:12.447Z,11.40
2017-11-01T09:55:40.896Z,11.30
2017-11-01T09:58:08.846Z,11.00
2017-11-01T10:00:36.433Z,11.00
2017-11-01T10:03:05.011Z,10.90
2017-11-01T10:05:32.625Z,11.10
2017-11-01T10:08:00.182Z,11.20
2017-11-01T10:10:28.669Z,11.30
2017-11-01T10:12:57.039Z,11.40
2017-11-01T10:15:24.620Z,11.30
2017-11-01T10:17:52.180Z,11.30
2017-11-01T10:20:20.479Z,11.60
2017-11-01T10:22:48.081Z,11.60
2017-11-01T10:25:15.681Z,12.00
2017-11-01T10:27:43.999Z,12.00
2017-11-01T10:30:11.578Z,12.00
2017-11-01T10:32:39.390Z,12.10
2017-11-01T10:35:07.754Z,12.20
2017-11-01T10:37:35.329Z,12.20
2017-11-01T10:40:02.956Z,12.40
2017-11-01T10:42:30.560Z,12.50
2017-11-01T10:44:58.116Z,12.40
2017-11-01T10:47:25.689Z,12.30
2017-11-01T10:49:54.223Z,12.20
2017-11-01T10:52:21.762Z,12.10
2017-11-01T10:54:49.896Z,12.10
2017-11-01T10:57:17.633Z,12.10
2017-11-01T10:59:45.166Z,11.90
2017-11-01T11:02:13.546Z,11.90
2017-11-01T11:04:41.854Z,11.70
2017-11-01T11:07:10.614Z,11.70
2017-11-01T11:09:38.947Z,11.60
2017-11-01T11:12:06.617Z,11.50
2017-11-01T11:14:34.975Z,11.50
2017-11-01T11:17:02.566Z,11.50
2017-11-01T11:19:30.142Z,11.60
2017-11-01T11:21:57.699Z,11.90
2017-11-01T11:24:25.292Z,11.90
2017-11-01T11:26:54.259Z,12.00
2017-11-01T11:29:21.844Z,12.30
2017-11-01T11:31:49.389Z,12.60
2017-11-01T11:34:16.972Z,12.90
2017-11-01T11:36:44.505Z,13.10
2017-11-01T11:39:12.114Z,13.20
2017-11-01T11:41:40.463Z,13.60
2017-11-01T11:44:08.028Z,13.60
2017-11-01T11:46:36.420Z,14.20
2017-11-01T11:49:04.092Z,14.20
2017-11-01T11:51:32.937Z,15.00
2017-11-01T11:54:00.514Z,14.90
2017-11-01T11:56:29.263Z,14.90
2017-11-01T11:58:57.590Z,14.90
2017-11-01T12:01:25.271Z,14.90
2017-11-01T12:03:52.929Z,14.90
2017-11-01T12:06:20.694Z,14.90
2017-11-01T12:08:48.501Z,15.00
2017-11-01T12:11:16.039Z,15.10
2017-11-01T12:13:43.772Z,15.50
2017-11-01T12:16:12.165Z,15.30
2017-11-01T12:18:39.734Z,15.30
2017-11-01T12:21:07.591Z,15.00
2017-11-01T12:23:36.178Z,14.70
2017-11-01T12:26:03.849Z,14.10
2017-11-01T12:28:31.494Z,14.10
2017-11-01T12:30:59.289Z,14.10
2017-11-01T12:33:26.925Z,14.20
2017-11-01T12:35:54.484Z,14.40
2017-11-01T12:38:22.143Z,14.50
2017-11-01T12:40:49.847Z,14.60
2017-11-01T12:43:17.548Z,14.80
2017-11-01T12:45:45.596Z,15.20
2017-11-01T12:48:13.185Z,15.50
2017-11-01T12:50:40.844Z,15.60
2017-11-01T12:53:08.538Z,15.40
2017-11-01T12:55:36.198Z,15.10
2017-11-01T12:58:03.781Z,15.10
2017-11-01T13:00:31.507Z,15.30
2017-11-01T13:02:59.105Z,15.50
2017-11-01T13:05:26.772Z,15.70
2017-11-01T13:07:54.726Z,15.80
2017-11-01T13:10:22.339Z,16.10
2017-11-01T13:12:50.068Z,16.20
2017-11-01T13:15:17.630Z,16.30
2017-11-01T13:17:45.377Z,16.20
2017-11-01T13:20:12.991Z,16.10
2017-11-01T13:22:40.789Z,15.80
2017-11-01T13:25:09.303Z,15.60
2017-11-01T13:27:37.111Z,15.60
2017-11-01T13:30:05.088Z,15.50
2017-11-01T13:32:32.680Z,15.30
2017-11-01T13:35:00.696Z,15.10
2017-11-01T13:37:29.425Z,15.00
2017-11-01T13:39:57.132Z,14.90
2017-11-01T13:42:26.649Z,14.90
2017-11-01T13:44:55.054Z,14.90
2017-11-01T13:47:22.610Z,14.90
2017-11-01T13:49:50.588Z,15.00
2017-11-01T13:52:18.169Z,14.90
2017-11-01T13:54:45.853Z,14.90
2017-11-01T13:57:13.387Z,14.70
2017-11-01T13:59:40.924Z,14.70
2017-11-01T14:02:09.289Z,14.50
2017-11-01T14:04:36.822Z,14.50
2017-11-01T14:07:04.363Z,14.60
2017-11-01T14:09:31.956Z,14.60
2017-11-01T14:11:59.586Z,14.30
2017-11-01T14:14:27.411Z,14.30
2017-11-01T14:16:55.123Z,14.20
2017-11-01T14:19:22.724Z,14.00
2017-11-01T14:21:50.381Z,14.10
2017-11-01T14:24:18.050Z,14.10
2017-11-01T14:26:45.622Z,14.00
2017-11-01T14:29:13.256Z,14.00
2017-11-01T14:31:40.824Z,13.80
2017-11-01T14:34:08.440Z,13.70
2017-11-01T14:36:36.392Z,13.70
2017-11-01T14:39:03.997Z,13.70
2017-11-01T14:41:31.674Z,13.70
2017-11-01T14:43:59.997Z,13.60
2017-11-01T14:46:27.560Z,13.60
2017-11-01T14:48:55.176Z,13.60
2017-11-01T14:51:23.532Z,13.60
2017-11-01T14:53:51.073Z,13.60
2017-11-01T14:56:18.664Z,13.40
2017-11-01T14:58:46.251Z,13.20
2017-11-01T15:01:14.603Z,12.90
2017-11-01T15:03:42.151Z,12.90
2017-11-01T15:06:09.710Z,12.80
2017-11-01T15:08:37.275Z,12.80
2017-11-01T15:11:04.828Z,12.70
2017-11-01T15:13:32.421Z,12.60
2017-11-01T15:16:00.003Z,12.40
2017-11-01T15:18:28.390Z,12.20
2017-11-01T15:20:55.968Z,12.10
2017-11-01T15:23:24.333Z,12.00
2017-11-01T15:25:52.659Z,12.00
2017-11-01T15:28:20.260Z,11.90
2017-11-01T15:30:47.820Z,11.80
2017-11-01T15:33:15.379Z,11.60
2017-11-01T15:35:42.972Z,11.40
2017-11-01T15:38:10.583Z,11.30
2017-11-01T15:40:38.137Z,11.10
2017-11-01T15:43:06.493Z,10.80
2017-11-01T15:45:34.030Z,10.80
2017-11-01T15:48:01.610Z,10.60
2017-11-01T15:50:29.180Z,10.40
2017-11-01T15:52:56.743Z,10.20
2017-11-01T15:55:24.335Z,10.10
2017-11-01T15:57:52.709Z,9.70
2017-11-01T16:00:21.045Z,9.50
2017-11-01T16:02:48.606Z,9.50
2017-11-01T16:05:16.155Z,9.30
2017-11-01T16:07:44.684Z,9.20
2017-11-01T16:10:12.225Z,9.10
2017-11-01T16:12:39.787Z,8.90
2017-11-01T16:15:08.151Z,8.50
2017-11-01T16:17:35.707Z,8.40
2017-11-01T16:20:04.036Z,8.20
2017-11-01T16:22:31.614Z,8.20
2017-11-01T16:24:59.177Z,8.20
2017-11-01T16:27:26.744Z,8.10
2017-11-01T16:29:54.332Z,7.90
2017-11-01T16:32:22.693Z,7.80
2017-11-01T16:34:50.246Z,7.70
2017-11-01T16:37:17.816Z,7.60
2017-11-01T16:39:45.397Z,7.50
2017-11-01T16:42:13.733Z,7.20
2017-11-01T16:44:42.073Z,7.20
2017-11-01T16:47:10.981Z,7.20
2017-11-01T16:49:39.546Z,7.10
2017-11-01T16:52:07.109Z,7.10
2017-11-01T16:54:34.683Z,6.90
2017-11-01T16:57:02.253Z,6.80
2017-11-01T16:59:30.567Z,6.60
2017-11-01T17:01:58.147Z,6.60
2017-11-01T17:04:25.737Z,6.60
2017-11-01T17:06:54.114Z,6.50
2017-11-01T17:09:21.706Z,6.40
2017-11-01T17:11:49.998Z,6.40
2017-11-01T17:14:17.566Z,6.30
2017-11-01T17:16:45.913Z,6.20
2017-11-01T17:19:13.492Z,6.20
2017-11-01T17:21:41.136Z,6.20
2017-11-01T17:24:08.676Z,6.20
2017-11-01T17:26:36.232Z,6.20
2017-11-01T17:29:03.775Z,6.20
2017-11-01T17:31:32.083Z,6.10
2017-11-01T17:33:59.664Z,6.10
2017-11-01T17:36:27.224Z,6.00
2017-11-01T17:38:54.769Z,5.90
2017-11-01T17:41:22.334Z,5.90
2017-11-01T17:43:49.901Z,5.90
2017-11-01T17:46:17.464Z,5.80
2017-11-01T17:48:45.102Z,5.80
2017-11-01T17:51:13.454Z,5.70
2017-11-01T17:53:41.019Z,5.70
2017-11-01T17:56:08.535Z,5.70
2017-11-01T17:58:36.081Z,5.70
2017-11-01T18:01:04.393Z,5.50
2017-11-01T18:03:31.961Z,5.50
2017-11-01T18:05:59.569Z,5.50
2017-11-01T18:08:27.113Z,5.50
2017-11-01T18:10:55.714Z,5.50
2017-11-01T18:13:23.295Z,5.50
2017-11-01T18:15:50.845Z,5.50
2017-11-01T18:18:18.411Z,5.50
2017-11-01T18:20:46.055Z,5.50
2017-11-01T18:23:13.678Z,5.60
2017-11-01T18:25:41.235Z,5.50
2017-11-01T18:28:09.614Z,5.40
2017-11-01T18:30:37.955Z,5.40
2017-11-01T18:33:05.528Z,5.40
2017-11-01T18:35:33.103Z,5.40
2017-11-01T18:38:00.679Z,5.40
2017-11-01T18:40:28.288Z,5.40
2017-11-01T18:42:56.363Z,5.40
2017-11-01T18:45:24.310Z,5.30
2017-11-01T18:47:52.706Z,5.30
2017-11-01T18:50:20.283Z,5.30
2017-11-01T18:52:48.016Z,5.40
2017-11-01T18:55:15.584Z,5.50
2017-11-01T18:57:44.022Z,5.50
2017-11-01T19:00:11.631Z,5.40
2017-11-01T19:02:39.222Z,5.50
2017-11-01T19:05:06.831Z,5.50
2017-11-01T19:07:35.357Z,5.60
2017-11-01T19:10:04.184Z,5.60
2017-11-01T19:12:31.890Z,5.60
2017-11-01T19:15:00.621Z,5.60
2017-11-01T19:17:28.214Z,5.60
2017-11-01T19:19:56.357Z,5.60
2017-11-01T19:22:24.739Z,5.40
2017-11-01T19:24:53.086Z,5.30
2017-11-01T19:27:21.231Z,5.30
2017-11-01T19:29:48.847Z,5.30
2017-11-01T19:32:17.435Z,5.20
2017-11-01T19:34:45.023Z,5.10
2017-11-01T19:37:13.348Z,5.10
2017-11-01T19:39:40.974Z,5.10
2017-11-01T19:42:10.696Z,5.00
2017-11-01T19:44:38.931Z,4.90
2017-11-01T19:47:08.611Z,4.90
2017-11-01T19:49:36.455Z,4.80
2017-11-01T19:52:04.029Z,4.80
2017-11-01T19:54:31.615Z,4.80
2017-11-01T19:56:59.240Z,4.80
2017-11-01T19:59:26.830Z,4.80
2017-11-01T20:01:55.431Z,4.90
2017-11-01T20:04:23.094Z,4.80
2017-11-01T20:06:50.646Z,4.80
2017-11-01T20:09:18.248Z,4.80
2017-11-01T20:11:45.810Z,4.80
2017-11-01T20:14:13.403Z,4.80
2017-11-01T20:16:40.996Z,4.80
2017-11-01T20:19:08.546Z,4.80
2017-11-01T20:21:36.868Z,4.80
2017-11-01T20:24:05.002Z,4.80
2017-11-01T20:26:32.674Z,4.80
2017-11-01T20:29:01.124Z,4.80
2017-11-01T20:31:28.722Z,4.80
2017-11-01T20:33:56.309Z,4.80
2017-11-01T20:36:23.917Z,4.80
2017-11-01T20:38:51.534Z,4.80
2017-11-01T20:41:19.135Z,4.70
2017-11-01T20:43:46.714Z,4.70
2017-11-01T20:46:14.286Z,4.80
2017-11-01T20:48:41.889Z,4.70
2017-11-01T20:51:10.420Z,4.70
2017-11-01T20:53:38.056Z,4.70
2017-11-01T20:56:06.701Z,4.70
2017-11-01T20:58:34.320Z,4.70
2017-11-01T21:01:01.884Z,4.60
2017-11-01T21:03:29.455Z,4.50
2017-11-01T21:05:57.010Z,4.50
2017-11-01T21:08:24.601Z,4.40
2017-11-01T21:10:52.221Z,4.40
2017-11-01T21:13:20.705Z,4.40
2017-11-01T21:15:48.334Z,4.40
2017-11-01T21:18:15.880Z,4.30
2017-11-01T21:20:43.473Z,4.30
2017-11-01T21:23:11.111Z,4.20
2017-11-01T21:25:38.781Z,4.30
2017-11-01T21:28:06.368Z,4.20
2017-11-01T21:30:33.941Z,4.20
2017-11-01T21:33:03.297Z,4.20
2017-11-01T21:35:30.884Z,4.20
2017-11-01T21:37:58.551Z,4.10
2017-11-01T21:40:26.164Z,4.10
2017-11-01T21:42:54.524Z,4.10
2017-11-01T21:45:22.117Z,4.10
2017-11-01T21:47:50.479Z,3.90
2017-11-01T21:50:18.059Z,3.90
2017-11-01T21:52:45.633Z,3.90
2017-11-01T21:55:13.981Z,4.00
2017-11-01T21:57:42.257Z,4.00
2017-11-01T22:00:09.838Z,4.10
2017-11-01T22:02:37.403Z,4.00
2017-11-01T22:05:05.753Z,3.80
2017-11-01T22:07:33.342Z,3.80
2017-11-01T22:10:00.879Z,3.80
2017-11-01T22:12:28.500Z,3.80
2017-11-01T22:14:56.873Z,3.80
2017-11-01T22:17:25.212Z,3.80
2017-11-01T22:19:52.757Z,3.80
2017-11-01T22:22:20.365Z,3.70
2017-11-01T22:24:47.953Z,3.80
2017-11-01T22:27:16.283Z,3.80
2017-11-01T22:29:43.897Z,3.80
2017-11-01T22:32:12.256Z,3.90
2017-11-01T22:34:39.827Z,3.80
2017-11-01T22:37:07.463Z,3.80
2017-11-01T22:39:35.030Z,3.90
2017-11-01T22:42:02.639Z,3.90
2017-11-01T22:44:30.269Z,4.00
2017-11-01T22:46:57.892Z,4.10
2017-11-01T22:49:26.230Z,4.20
2017-11-01T22:51:53.822Z,4.10
2017-11-01T22:54:23.143Z,4.20
2017-11-01T22:56:50.692Z,4.20
2017-11-01T22:59:19.059Z,4.30
2017-11-01T23:01:46.661Z,4.20
2017-11-01T23:04:14.219Z,4.30
2017-11-01T23:06:42.592Z,4.40
2017-11-01T23:09:10.951Z,4.30
2017-11-01T23:11:38.528Z,4.30
2017-11-01T23:14:07.834Z,4.30
2017-11-01T23:16:36.162Z,4.30
2017-11-01T23:19:03.762Z,4.30
2017-11-01T23:21:31.347Z,4.30
2017-11-01T23:23:59.708Z,4.20
2017-11-01T23:26:27.280Z,4.20
2017-11-01T23:28:54.835Z,4.30
2017-11-01T23:31:22.382Z,4.30
2017-11-01T23:33:50.705Z,4.40
2017-11-01T23:36:19.089Z,4.40
2017-11-01T23:38:46.622Z,4.40
2017-11-01T23:41:14.168Z,4.40
2017-11-01T23:43:41.754Z,4.50
2017-11-01T23:46:09.312Z,4.50
2017-11-01T23:48:36.870Z,4.50
2017-11-01T23:51:04.560Z,4.40
2017-11-01T23:53:32.127Z,4.40
2017-11-01T23:55:59.683Z,4.30
2017-11-01T23:58:27.277Z,4.20
